createdAt,value
2023-05-11T00:00:08.750Z,78.12
2023-05-11T00:01:08.728Z,78.06
2023-05-11T00:02:08.717Z,78.06
2023-05-11T00:03:08.906Z,77.82
2023-05-11T00:04:08.742Z,78.02
2023-05-11T00:05:08.669Z,78.02
2023-05-11T00:06:08.680Z,77.92
2023-05-11T00:07:08.666Z,77.92
2023-05-11T00:08:08.691Z,78.02
2023-05-11T00:09:08.629Z,78.02
2023-05-11T00:10:08.600Z,77.92
2023-05-11T00:11:08.599Z,78.02
2023-05-11T00:12:08.618Z,77.92
2023-05-11T00:13:08.576Z,77.92
2023-05-11T00:14:08.564Z,77.82
2023-05-11T00:15:08.595Z,77.92
2023-05-11T00:16:08.640Z,77.62
2023-05-11T00:17:08.540Z,77.72
2023-05-11T00:18:08.561Z,78.12
2023-05-11T00:19:08.572Z,77.75
2023-05-11T00:20:08.512Z,77.72
2023-05-11T00:21:08.521Z,77.72
2023-05-11T00:22:08.520Z,78.12
2023-05-11T00:23:08.485Z,77.92
2023-05-11T00:24:08.489Z,78.12
2023-05-11T00:25:08.507Z,78.32
2023-05-11T00:26:08.450Z,78.02
2023-05-11T00:27:08.412Z,77.92
2023-05-11T00:28:08.451Z,78.12
2023-05-11T00:29:08.398Z,77.92
2023-05-11T00:30:08.406Z,77.92
2023-05-11T00:31:08.459Z,77.82
2023-05-11T00:32:08.394Z,77.92
2023-05-11T00:33:08.443Z,77.92
2023-05-11T00:34:08.351Z,77.82
2023-05-11T00:35:08.406Z,78.02
2023-05-11T00:36:08.371Z,77.92
2023-05-11T00:37:08.352Z,77.92
2023-05-11T00:38:08.320Z,77.92
2023-05-11T00:39:08.304Z,77.92
2023-05-11T00:40:08.289Z,78.02
2023-05-11T00:41:08.267Z,77.92
2023-05-11T00:42:08.261Z,78.32
2023-05-11T00:43:08.301Z,78.06
2023-05-11T00:44:08.249Z,77.92
2023-05-11T00:45:08.246Z,78.22
2023-05-11T00:46:08.203Z,77.82
2023-05-11T00:47:08.289Z,77.82
2023-05-11T00:48:08.225Z,78.32
2023-05-11T00:49:08.246Z,78.26
2023-05-11T00:50:08.170Z,78.02
2023-05-11T00:51:08.179Z,78.36
2023-05-11T00:52:08.208Z,78.26
2023-05-11T00:53:15.783Z,77.82
2023-05-11T00:54:08.142Z,77.95
2023-05-11T00:55:08.114Z,78.12
2023-05-11T00:56:08.111Z,78.02
2023-05-11T00:57:08.095Z,77.82
2023-05-11T00:58:08.091Z,78.52
2023-05-11T00:59:08.064Z,78.16
2023-05-11T01:00:08.087Z,78.26
2023-05-11T01:01:08.119Z,78.26
2023-05-11T01:02:08.094Z,78.42
2023-05-11T01:03:08.076Z,78.16
2023-05-11T01:04:08.035Z,78.22
2023-05-11T01:05:08.071Z,78.42
2023-05-11T01:06:07.993Z,78.36
2023-05-11T01:07:07.985Z,78.12
2023-05-11T01:08:08.033Z,78.32
2023-05-11T01:09:07.956Z,78.22
2023-05-11T01:10:07.977Z,78.12
2023-05-11T01:11:07.971Z,78.06
2023-05-11T01:12:07.971Z,78.26
2023-05-11T01:13:07.940Z,78.36
2023-05-11T01:14:07.941Z,78.32
2023-05-11T01:15:07.889Z,78.36
2023-05-11T01:16:07.921Z,78.63
2023-05-11T01:17:07.917Z,78.22
2023-05-11T01:18:07.897Z,78.12
2023-05-11T01:19:07.923Z,78.52
2023-05-11T01:20:07.889Z,78.72
2023-05-11T01:21:07.834Z,78.72
2023-05-11T01:22:07.823Z,78.22
2023-05-11T01:23:07.894Z,78.72
2023-05-11T01:24:07.871Z,78.22
2023-05-11T01:25:07.827Z,78.22
2023-05-11T01:26:07.834Z,78.22
2023-05-11T01:27:07.779Z,78.12
2023-05-11T01:28:07.768Z,78.12
2023-05-11T01:29:07.778Z,78.42
2023-05-11T01:30:07.775Z,78.22
2023-05-11T01:31:07.807Z,78.02
2023-05-11T01:32:07.743Z,78.12
2023-05-11T01:33:07.793Z,78.22
2023-05-11T01:34:07.693Z,78.22
2023-05-11T01:35:07.718Z,78.16
2023-05-11T01:36:07.724Z,78.16
2023-05-11T01:37:07.703Z,78.26
2023-05-11T01:38:07.655Z,78.46
2023-05-11T01:39:07.649Z,78.26
2023-05-11T01:40:07.666Z,78.36
2023-05-11T01:41:07.612Z,78.46
2023-05-11T01:42:07.620Z,78.26
2023-05-11T01:43:07.619Z,78.26
2023-05-11T01:44:07.582Z,78.36
2023-05-11T01:45:07.576Z,78.36
2023-05-11T01:46:07.612Z,78.56
2023-05-11T01:47:07.577Z,78.56
2023-05-11T01:48:07.580Z,78.36
2023-05-11T01:49:07.532Z,78.66
2023-05-11T01:50:07.509Z,78.26
2023-05-11T01:51:07.530Z,78.26
2023-05-11T01:52:07.550Z,78.26
2023-05-11T01:53:07.480Z,78.26
2023-05-11T01:54:07.488Z,78.26
2023-05-11T01:55:07.474Z,78.46
2023-05-11T01:56:07.454Z,78.46
2023-05-11T01:57:07.471Z,78.36
2023-05-11T01:58:07.467Z,78.16
2023-05-11T01:59:07.428Z,78.06
2023-05-11T02:00:07.442Z,78.46
2023-05-11T02:01:07.522Z,78.36
2023-05-11T02:02:07.408Z,78.46
2023-05-11T02:03:07.526Z,78.46
2023-05-11T02:04:07.380Z,78.36
2023-05-11T02:05:07.377Z,78.16
2023-05-11T02:06:07.360Z,78.16
2023-05-11T02:07:07.369Z,78.26
2023-05-11T02:08:07.328Z,78.26
2023-05-11T02:09:07.314Z,78.36
2023-05-11T02:10:07.299Z,78.26
2023-05-11T02:11:07.364Z,78.26
2023-05-11T02:12:07.309Z,78.26
2023-05-11T02:13:07.281Z,78.16
2023-05-11T02:14:07.250Z,78.26
2023-05-11T02:15:07.262Z,78.26
2023-05-11T02:16:07.272Z,78.26
2023-05-11T02:17:07.241Z,78.36
2023-05-11T02:18:07.280Z,78.26
2023-05-11T02:19:07.296Z,78.26
2023-05-11T02:20:07.194Z,78.26
2023-05-11T02:21:07.187Z,78.26
2023-05-11T02:22:07.163Z,78.36
2023-05-11T02:23:07.202Z,78.26
2023-05-11T02:24:07.233Z,78.36
2023-05-11T02:25:07.150Z,78.26
2023-05-11T02:26:07.127Z,78.46
2023-05-11T02:27:07.130Z,78.46
2023-05-11T02:28:07.155Z,78.36
2023-05-11T02:29:07.117Z,78.46
2023-05-11T02:30:07.101Z,78.46
2023-05-11T02:31:07.117Z,78.26
2023-05-11T02:32:07.051Z,78.46
2023-05-11T02:33:07.132Z,78.16
2023-05-11T02:34:07.046Z,78.56
2023-05-11T02:35:07.063Z,78.26
2023-05-11T02:36:07.014Z,78.36
2023-05-11T02:37:07.042Z,78.26
2023-05-11T02:38:07.057Z,78.46
2023-05-11T02:39:07.006Z,78.26
2023-05-11T02:40:07.013Z,78.26
2023-05-11T02:41:06.973Z,78.16
2023-05-11T02:42:06.946Z,78.36
2023-05-11T02:43:06.939Z,78.50
2023-05-11T02:44:06.954Z,78.59
2023-05-11T02:45:06.931Z,78.26
2023-05-11T02:46:06.944Z,78.26
2023-05-11T02:47:06.948Z,78.30
2023-05-11T02:48:06.989Z,78.26
2023-05-11T02:49:06.945Z,78.56
2023-05-11T02:50:06.858Z,78.36
2023-05-11T02:51:06.856Z,78.36
2023-05-11T02:52:06.860Z,78.26
2023-05-11T02:53:06.856Z,78.59
2023-05-11T02:54:06.818Z,78.26
2023-05-11T02:55:06.822Z,78.46
2023-05-11T02:56:06.821Z,78.26
2023-05-11T02:57:06.803Z,78.46
2023-05-11T02:58:06.841Z,78.56
2023-05-11T02:59:06.761Z,78.16
2023-05-11T03:00:06.769Z,78.16
2023-05-11T03:01:06.924Z,78.16
2023-05-11T03:02:06.915Z,78.19
2023-05-11T03:03:06.812Z,78.56
2023-05-11T03:04:06.739Z,78.39
2023-05-11T03:05:06.705Z,78.30
2023-05-11T03:06:06.683Z,78.39
2023-05-11T03:07:06.709Z,78.30
2023-05-11T03:08:06.674Z,78.59
2023-05-11T03:09:08.552Z,78.59
2023-05-11T03:10:06.750Z,78.59
2023-05-11T03:11:06.682Z,78.30
2023-05-11T03:12:06.657Z,79.00
2023-05-11T03:13:06.634Z,78.39
2023-05-11T03:14:06.595Z,78.30
2023-05-11T03:15:06.597Z,78.30
2023-05-11T03:16:06.752Z,78.39
2023-05-11T03:17:06.647Z,78.23
2023-05-11T03:18:06.639Z,78.53
2023-05-11T03:19:06.600Z,78.30
2023-05-11T03:20:06.559Z,78.33
2023-05-11T03:21:06.539Z,78.30
2023-05-11T03:22:06.505Z,78.30
2023-05-11T03:23:06.539Z,78.39
2023-05-11T03:24:06.497Z,78.19
2023-05-11T03:25:06.488Z,78.19
2023-05-11T03:26:06.475Z,78.19
2023-05-11T03:27:06.481Z,78.30
2023-05-11T03:28:06.479Z,78.09
2023-05-11T03:29:06.455Z,78.39
2023-05-11T03:30:06.430Z,78.30
2023-05-11T03:31:06.430Z,78.39
2023-05-11T03:32:06.496Z,78.39
2023-05-11T03:33:06.458Z,78.39
2023-05-11T03:34:06.402Z,78.30
2023-05-11T03:35:06.368Z,78.39
2023-05-11T03:36:06.379Z,78.59
2023-05-11T03:37:06.380Z,78.46
2023-05-11T03:38:06.353Z,78.39
2023-05-11T03:39:06.366Z,78.30
2023-05-11T03:40:06.324Z,78.19
2023-05-11T03:41:06.326Z,78.30
2023-05-11T03:42:06.298Z,78.30
2023-05-11T03:43:06.279Z,78.26
2023-05-11T03:44:06.349Z,78.19
2023-05-11T03:45:06.293Z,78.16
2023-05-11T03:46:06.322Z,78.36
2023-05-11T03:47:06.265Z,78.16
2023-05-11T03:48:06.355Z,78.26
2023-05-11T03:49:06.245Z,78.36
2023-05-11T03:50:06.236Z,78.36
2023-05-11T03:51:06.243Z,78.36
2023-05-11T03:52:06.196Z,78.26
2023-05-11T03:53:06.179Z,78.36
2023-05-11T03:54:06.238Z,78.26
2023-05-11T03:55:06.183Z,78.26
2023-05-11T03:56:06.150Z,78.66
2023-05-11T03:57:06.156Z,78.30
2023-05-11T03:58:06.121Z,78.09
2023-05-11T03:59:06.118Z,78.39
2023-05-11T04:00:06.142Z,78.39
2023-05-11T04:01:06.108Z,78.30
2023-05-11T04:02:06.086Z,78.26
2023-05-11T04:03:06.200Z,78.06
2023-05-11T04:04:06.152Z,78.26
2023-05-11T04:05:06.055Z,78.36
2023-05-11T04:06:06.056Z,78.30
2023-05-11T04:07:06.047Z,78.30
2023-05-11T04:08:06.048Z,78.46
2023-05-11T04:09:06.005Z,78.39
2023-05-11T04:10:06.008Z,78.36
2023-05-11T04:11:05.972Z,78.39
2023-05-11T04:12:06.017Z,78.26
2023-05-11T04:13:05.975Z,78.36
2023-05-11T04:14:05.991Z,78.16
2023-05-11T04:15:05.944Z,78.36
2023-05-11T04:16:05.971Z,78.16
2023-05-11T04:17:05.958Z,78.26
2023-05-11T04:18:05.966Z,78.16
2023-05-11T04:19:06.637Z,78.16
2023-05-11T04:20:05.914Z,78.16
2023-05-11T04:21:05.870Z,78.16
2023-05-11T04:22:05.878Z,78.26
2023-05-11T04:23:06.631Z,78.16
2023-05-11T04:24:05.834Z,78.36
2023-05-11T04:25:05.891Z,78.46
2023-05-11T04:26:05.847Z,78.16
2023-05-11T04:27:05.803Z,78.36
2023-05-11T04:28:05.790Z,78.46
2023-05-11T04:29:05.782Z,77.86
2023-05-11T04:30:05.774Z,78.26
2023-05-11T04:31:05.827Z,78.36
2023-05-11T04:32:05.771Z,78.32
2023-05-11T04:33:05.798Z,78.42
2023-05-11T04:34:05.779Z,78.22
2023-05-11T04:35:05.724Z,78.16
2023-05-11T04:36:05.716Z,78.36
2023-05-11T04:37:05.716Z,78.32
2023-05-11T04:38:05.677Z,78.22
2023-05-11T04:39:07.433Z,78.22
2023-05-11T04:40:05.660Z,78.32
2023-05-11T04:41:05.670Z,78.06
2023-05-11T04:42:05.686Z,78.02
2023-05-11T04:43:05.645Z,78.52
2023-05-11T04:44:05.671Z,77.92
2023-05-11T04:45:05.601Z,77.92
2023-05-11T04:46:05.595Z,78.02
2023-05-11T04:47:05.631Z,78.02
2023-05-11T04:48:05.610Z,77.92
2023-05-11T04:49:05.663Z,77.92
2023-05-11T04:50:05.603Z,77.72
2023-05-11T04:51:05.558Z,77.82
2023-05-11T04:52:05.528Z,77.51
2023-05-11T04:53:05.525Z,77.51
2023-05-11T04:54:05.514Z,77.51
2023-05-11T04:55:05.513Z,77.01
2023-05-11T04:56:05.493Z,77.11
2023-05-11T04:57:05.477Z,77.11
2023-05-11T04:58:05.482Z,77.51
2023-05-11T04:59:05.607Z,77.11
2023-05-11T05:00:05.493Z,77.21
2023-05-11T05:01:05.473Z,77.51
2023-05-11T05:02:05.412Z,76.91
2023-05-11T05:03:05.457Z,77.01
2023-05-11T05:04:05.494Z,77.31
2023-05-11T05:05:05.588Z,77.21
2023-05-11T05:06:05.382Z,77.17
2023-05-11T05:07:05.387Z,77.08
2023-05-11T05:08:05.348Z,77.28
2023-05-11T05:09:05.348Z,77.17
2023-05-11T05:10:05.360Z,76.67
2023-05-11T05:11:05.330Z,76.57
2023-05-11T05:12:05.333Z,76.17
2023-05-11T05:13:05.320Z,76.77
2023-05-11T05:14:05.332Z,76.27
2023-05-11T05:15:05.274Z,76.67
2023-05-11T05:16:05.287Z,76.37
2023-05-11T05:17:05.412Z,76.47
2023-05-11T05:18:05.308Z,76.40
2023-05-11T05:19:05.379Z,76.77
2023-05-11T05:20:05.444Z,76.10
2023-05-11T05:21:05.212Z,76.27
2023-05-11T05:22:05.204Z,76.40
2023-05-11T05:23:05.198Z,76.31
2023-05-11T05:24:05.209Z,76.47
2023-05-11T05:25:05.185Z,76.20
2023-05-11T05:26:05.156Z,76.17
2023-05-11T05:27:05.147Z,76.27
2023-05-11T05:28:05.142Z,76.17
2023-05-11T05:29:05.129Z,76.17
2023-05-11T05:30:05.142Z,76.17
2023-05-11T05:31:05.122Z,76.17
2023-05-11T05:32:05.088Z,75.96
2023-05-11T05:33:05.132Z,75.76
2023-05-11T05:34:05.070Z,76.14
2023-05-11T05:35:05.076Z,76.07
2023-05-11T05:36:05.111Z,75.96
2023-05-11T05:37:05.043Z,75.46
2023-05-11T05:38:05.033Z,75.96
2023-05-11T05:39:05.028Z,76.07
2023-05-11T05:40:05.009Z,76.14
2023-05-11T05:41:05.012Z,75.93
2023-05-11T05:42:05.013Z,75.93
2023-05-11T05:43:04.971Z,76.03
2023-05-11T05:44:04.968Z,75.83
2023-05-11T05:45:04.963Z,76.14
2023-05-11T05:46:05.017Z,76.14
2023-05-11T05:47:04.954Z,75.73
2023-05-11T05:48:05.016Z,75.02
2023-05-11T05:49:04.904Z,74.79
2023-05-11T05:50:04.899Z,74.58
2023-05-11T05:51:04.908Z,75.09
2023-05-11T05:52:04.945Z,74.49
2023-05-11T05:53:04.895Z,74.08
2023-05-11T05:54:04.851Z,74.38
2023-05-11T05:55:04.838Z,73.98
2023-05-11T05:56:04.836Z,74.08
2023-05-11T05:57:04.823Z,73.98
2023-05-11T05:58:04.828Z,73.95
2023-05-11T05:59:04.830Z,74.25
2023-05-11T06:00:04.794Z,74.15
2023-05-11T06:01:04.777Z,73.95
2023-05-11T06:02:04.776Z,73.95
2023-05-11T06:03:04.837Z,74.01
2023-05-11T06:04:04.964Z,73.24
2023-05-11T06:05:04.927Z,72.81
2023-05-11T06:06:04.743Z,72.91
2023-05-11T06:07:04.705Z,72.91
2023-05-11T06:08:10.492Z,72.20
2023-05-11T06:09:05.703Z,72.94
2023-05-11T06:10:04.702Z,72.81
2023-05-11T06:11:04.697Z,72.81
2023-05-11T06:12:04.654Z,72.81
2023-05-11T06:13:04.777Z,72.61
2023-05-11T06:14:04.650Z,72.91
2023-05-11T06:15:04.646Z,72.07
2023-05-11T06:16:04.666Z,71.97
2023-05-11T06:17:04.645Z,72.17
2023-05-11T06:18:04.625Z,72.03
2023-05-11T06:19:04.735Z,71.53
2023-05-11T06:20:04.591Z,72.13
2023-05-11T06:21:04.591Z,72.10
2023-05-11T06:22:06.498Z,71.50
2023-05-11T06:23:04.577Z,71.60
2023-05-11T06:24:04.557Z,70.93
2023-05-11T06:25:04.516Z,70.12
2023-05-11T06:26:04.500Z,70.43
2023-05-11T06:27:04.518Z,71.03
2023-05-11T06:28:04.510Z,71.03
2023-05-11T06:29:04.510Z,71.80
2023-05-11T06:30:04.452Z,70.89
2023-05-11T06:31:04.465Z,70.70
2023-05-11T06:32:04.551Z,70.89
2023-05-11T06:33:04.507Z,69.59
2023-05-11T06:34:04.417Z,69.62
2023-05-11T06:35:04.418Z,69.42
2023-05-11T06:36:05.052Z,69.99
2023-05-11T06:37:04.389Z,69.59
2023-05-11T06:38:04.377Z,69.66
2023-05-11T06:39:04.394Z,69.46
2023-05-11T06:40:04.367Z,68.65
2023-05-11T06:41:04.333Z,69.02
2023-05-11T06:42:06.646Z,68.42
2023-05-11T06:43:04.320Z,68.42
2023-05-11T06:44:04.310Z,68.25
2023-05-11T06:45:04.384Z,67.65
2023-05-11T06:46:04.348Z,68.35
2023-05-11T06:47:04.266Z,68.05
2023-05-11T06:48:04.312Z,68.65
2023-05-11T06:49:04.264Z,67.72
2023-05-11T06:50:04.253Z,67.61
2023-05-11T06:51:04.242Z,67.52
2023-05-11T06:52:04.212Z,68.12
2023-05-11T06:53:04.208Z,67.82
2023-05-11T06:54:04.193Z,67.88
2023-05-11T06:55:04.212Z,67.58
2023-05-11T06:56:04.204Z,67.69
2023-05-11T06:57:04.175Z,65.81
2023-05-11T06:58:04.182Z,67.08
2023-05-11T06:59:04.135Z,66.01
2023-05-11T07:00:04.140Z,66.61
2023-05-11T07:01:04.153Z,66.99
2023-05-11T07:02:04.105Z,67.69
2023-05-11T07:03:04.141Z,66.38
2023-05-11T07:04:04.135Z,65.18
2023-05-11T07:05:04.127Z,65.98
2023-05-11T07:06:04.079Z,65.65
2023-05-11T07:07:04.072Z,65.45
2023-05-11T07:08:04.038Z,65.38
2023-05-11T07:09:04.046Z,65.28
2023-05-11T07:10:04.034Z,65.65
2023-05-11T07:11:04.007Z,65.05
2023-05-11T07:12:04.028Z,64.95
2023-05-11T07:13:04.005Z,65.85
2023-05-11T07:14:03.980Z,65.42
2023-05-11T07:15:04.016Z,65.62
2023-05-11T07:16:03.943Z,65.12
2023-05-11T07:17:03.984Z,63.81
2023-05-11T07:18:03.988Z,64.01
2023-05-11T07:19:03.947Z,65.12
2023-05-11T07:20:03.921Z,64.01
2023-05-11T07:21:03.900Z,64.81
2023-05-11T07:22:03.877Z,64.31
2023-05-11T07:23:03.878Z,64.51
2023-05-11T07:24:03.862Z,65.01
2023-05-11T07:25:03.852Z,64.31
2023-05-11T07:26:03.834Z,63.98
2023-05-11T07:27:03.838Z,64.09
2023-05-11T07:28:03.840Z,63.11
2023-05-11T07:29:03.822Z,63.21
2023-05-11T07:30:03.825Z,63.78
2023-05-11T07:31:03.794Z,63.48
2023-05-11T07:32:03.794Z,63.68
2023-05-11T07:33:03.848Z,63.18
2023-05-11T07:34:03.738Z,63.25
2023-05-11T07:35:03.768Z,63.45
2023-05-11T07:36:03.744Z,63.68
2023-05-11T07:37:03.736Z,63.18
2023-05-11T07:38:03.751Z,63.08
2023-05-11T07:39:03.692Z,63.18
2023-05-11T07:40:03.712Z,63.18
2023-05-11T07:41:05.937Z,63.08
2023-05-11T07:42:03.673Z,63.45
2023-05-11T07:43:03.674Z,63.89
2023-05-11T07:44:03.687Z,63.75
2023-05-11T07:45:03.631Z,63.75
2023-05-11T07:46:03.723Z,64.25
2023-05-11T07:47:03.602Z,63.65
2023-05-11T07:48:03.679Z,62.75
2023-05-11T07:49:14.568Z,63.15
2023-05-11T07:50:04.572Z,62.95
2023-05-11T07:51:03.561Z,63.25
2023-05-11T07:52:03.581Z,62.85
2023-05-11T07:53:03.561Z,62.98
2023-05-11T07:54:03.559Z,62.85
2023-05-11T07:55:03.574Z,62.45
2023-05-11T07:56:03.555Z,63.12
2023-05-11T07:57:03.518Z,63.02
2023-05-11T07:58:03.517Z,62.82
2023-05-11T07:59:03.475Z,62.22
2023-05-11T08:00:03.495Z,62.45
2023-05-11T08:01:03.453Z,62.15
2023-05-11T08:02:03.466Z,62.22
2023-05-11T08:03:03.519Z,62.72
2023-05-11T08:04:03.460Z,63.12
2023-05-11T08:05:03.414Z,62.62
2023-05-11T08:06:03.547Z,61.62
2023-05-11T08:07:03.414Z,61.52
2023-05-11T08:08:03.378Z,60.62
2023-05-11T08:09:03.372Z,61.62
2023-05-11T08:10:03.365Z,62.52
2023-05-11T08:11:03.348Z,61.32
2023-05-11T08:12:03.362Z,61.22
2023-05-11T08:13:03.477Z,61.40
2023-05-11T08:14:03.313Z,61.79
2023-05-11T08:15:03.296Z,61.59
2023-05-11T08:16:03.330Z,60.39
2023-05-11T08:17:03.348Z,60.59
2023-05-11T08:18:03.308Z,60.49
2023-05-11T08:19:03.332Z,60.99
2023-05-11T08:20:03.258Z,60.79
2023-05-11T08:21:03.234Z,60.59
2023-05-11T08:22:03.250Z,60.29
2023-05-11T08:23:03.232Z,60.49
2023-05-11T08:24:03.216Z,60.59
2023-05-11T08:25:03.203Z,60.39
2023-05-11T08:26:03.187Z,60.49
2023-05-11T08:27:03.196Z,60.39
2023-05-11T08:28:03.168Z,60.29
2023-05-11T08:29:03.501Z,60.12
2023-05-11T08:30:03.137Z,60.39
2023-05-11T08:31:03.137Z,59.89
2023-05-11T08:32:03.187Z,60.39
2023-05-11T08:33:03.150Z,60.29
2023-05-11T08:34:03.170Z,59.99
2023-05-11T08:35:03.225Z,59.86
2023-05-11T08:36:03.065Z,59.44
2023-05-11T08:37:03.067Z,58.44
2023-05-11T08:38:03.048Z,57.54
2023-05-11T08:39:03.128Z,58.21
2023-05-11T08:40:03.061Z,57.41
2023-05-11T08:41:03.037Z,56.98
2023-05-11T08:42:03.026Z,57.98
2023-05-11T08:43:02.989Z,55.91
2023-05-11T08:44:02.989Z,55.79
2023-05-11T08:45:02.994Z,56.51
2023-05-11T08:46:03.000Z,56.71
2023-05-11T08:47:20.940Z,56.71
2023-05-11T08:48:04.064Z,57.11
2023-05-11T08:49:02.928Z,56.44
2023-05-11T08:50:02.915Z,56.54
2023-05-11T08:51:02.904Z,57.01
2023-05-11T08:52:02.905Z,56.91
2023-05-11T08:53:02.912Z,57.61
2023-05-11T08:54:02.908Z,58.08
2023-05-11T08:55:02.858Z,57.68
2023-05-11T08:56:02.886Z,56.96
2023-05-11T08:57:02.840Z,56.36
2023-05-11T08:58:02.852Z,56.03
2023-05-11T08:59:02.818Z,55.54
2023-05-11T09:00:02.819Z,54.94
2023-05-11T09:01:02.799Z,53.34
2023-05-11T09:02:02.797Z,53.94
2023-05-11T09:03:02.865Z,55.49
2023-05-11T09:04:02.806Z,55.19
2023-05-11T09:05:02.787Z,55.16
2023-05-11T09:06:02.739Z,55.39
2023-05-11T09:07:02.734Z,57.68
2023-05-11T09:08:02.733Z,56.29
2023-05-11T09:09:02.717Z,55.79
2023-05-11T09:10:02.709Z,55.58
2023-05-11T09:11:02.712Z,55.66
2023-05-11T09:12:02.671Z,55.99
2023-05-11T09:13:02.684Z,56.26
2023-05-11T09:14:02.653Z,56.68
2023-05-11T09:15:02.961Z,57.95
2023-05-11T09:16:02.739Z,57.63
2023-05-11T09:17:02.646Z,57.73
2023-05-11T09:18:02.655Z,55.54
2023-05-11T09:19:02.819Z,55.73
2023-05-11T09:20:02.637Z,55.83
2023-05-11T09:21:02.582Z,55.73
2023-05-11T09:22:02.592Z,54.94
2023-05-11T09:23:02.562Z,53.74
2023-05-11T09:24:02.582Z,54.27
2023-05-11T09:25:02.542Z,54.16
2023-05-11T09:26:02.540Z,54.64
2023-05-11T09:27:02.517Z,55.54
2023-05-11T09:28:02.535Z,55.66
2023-05-11T09:29:03.058Z,53.86
2023-05-11T09:30:02.561Z,54.89
2023-05-11T09:31:02.501Z,55.49
2023-05-11T09:32:02.461Z,54.46
2023-05-11T09:33:02.582Z,54.86
2023-05-11T09:34:02.467Z,54.36
2023-05-11T09:35:02.423Z,55.16
2023-05-11T09:36:02.444Z,55.63
2023-05-11T09:37:02.412Z,56.06
2023-05-11T09:38:02.451Z,55.66
2023-05-11T09:39:02.404Z,55.96
2023-05-11T09:40:24.975Z,54.36
2023-05-11T09:41:03.411Z,55.16
2023-05-11T09:42:02.347Z,54.96
2023-05-11T09:43:02.345Z,55.06
2023-05-11T09:44:02.375Z,55.16
2023-05-11T09:45:02.335Z,54.16
2023-05-11T09:46:02.359Z,53.86
2023-05-11T09:47:02.289Z,54.86
2023-05-11T09:48:02.290Z,54.99
2023-05-11T09:49:02.307Z,54.49
2023-05-11T09:50:02.301Z,55.58
2023-05-11T09:51:02.285Z,55.99
2023-05-11T09:52:02.278Z,55.66
2023-05-11T09:53:02.241Z,55.36
2023-05-11T09:54:02.225Z,56.09
2023-05-11T09:55:02.263Z,55.29
2023-05-11T09:56:02.215Z,55.88
2023-05-11T09:57:02.221Z,55.19
2023-05-11T09:58:02.175Z,55.46
2023-05-11T09:59:02.162Z,55.56
2023-05-11T10:00:02.170Z,55.66
2023-05-11T10:01:02.144Z,55.66
2023-05-11T10:02:02.178Z,54.44
2023-05-11T10:03:02.245Z,55.24
2023-05-11T10:04:17.703Z,55.33
2023-05-11T10:05:03.147Z,55.11
2023-05-11T10:06:02.104Z,54.53
2023-05-11T10:07:02.123Z,55.33
2023-05-11T10:08:02.086Z,54.01
2023-05-11T10:09:02.052Z,54.31
2023-05-11T10:10:02.103Z,53.91
2023-05-11T10:11:02.061Z,53.61
2023-05-11T10:12:02.023Z,53.89
2023-05-11T10:13:02.016Z,54.68
2023-05-11T10:14:02.032Z,53.49
2023-05-11T10:15:02.028Z,53.78
2023-05-11T10:16:02.024Z,53.69
2023-05-11T10:17:01.971Z,53.89
2023-05-11T10:18:02.008Z,53.61
2023-05-11T10:19:02.037Z,53.71
2023-05-11T10:20:02.914Z,53.91
2023-05-11T10:21:01.938Z,53.71
2023-05-11T10:22:02.010Z,54.01
2023-05-11T10:23:01.916Z,53.89
2023-05-11T10:24:01.951Z,53.78
2023-05-11T10:25:01.904Z,53.89
2023-05-11T10:26:01.868Z,53.78
2023-05-11T10:27:01.859Z,53.69
2023-05-11T10:28:01.844Z,53.78
2023-05-11T10:29:01.851Z,52.09
2023-05-11T10:30:01.829Z,52.29
2023-05-11T10:31:01.847Z,53.69
2023-05-11T10:32:01.810Z,54.49
2023-05-11T10:33:01.863Z,53.99
2023-05-11T10:34:01.800Z,54.68
2023-05-11T10:35:01.792Z,53.89
2023-05-11T10:36:01.765Z,52.99
2023-05-11T10:37:01.817Z,52.49
2023-05-11T10:38:01.732Z,53.71
2023-05-11T10:39:01.718Z,53.66
2023-05-11T10:40:01.737Z,53.99
2023-05-11T10:41:01.727Z,53.86
2023-05-11T10:42:01.734Z,53.89
2023-05-11T10:43:01.708Z,53.99
2023-05-11T10:44:01.666Z,53.89
2023-05-11T10:45:01.683Z,54.19
2023-05-11T10:46:01.688Z,54.08
2023-05-11T10:47:01.638Z,53.11
2023-05-11T10:48:01.734Z,53.61
2023-05-11T10:49:01.627Z,54.31
2023-05-11T10:50:01.606Z,53.91
2023-05-11T10:51:01.620Z,54.28
2023-05-11T10:52:01.609Z,56.01
2023-05-11T10:53:01.571Z,55.58
2023-05-11T10:54:09.250Z,53.66
2023-05-11T10:55:01.592Z,53.66
2023-05-11T10:56:01.555Z,53.64
2023-05-11T10:57:01.537Z,53.83
2023-05-11T10:58:01.518Z,53.04
2023-05-11T10:59:01.526Z,51.87
2023-05-11T11:00:01.494Z,52.37
2023-05-11T11:01:01.586Z,52.39
2023-05-11T11:02:01.569Z,52.89
2023-05-11T11:03:01.582Z,52.79
2023-05-11T11:04:01.481Z,51.89
2023-05-11T11:05:02.032Z,53.39
2023-05-11T11:06:01.473Z,51.92
2023-05-11T11:07:01.428Z,52.89
2023-05-11T11:08:01.468Z,53.09
2023-05-11T11:09:01.396Z,53.39
2023-05-11T11:10:01.391Z,53.02
2023-05-11T11:11:01.390Z,53.34
2023-05-11T11:12:01.379Z,52.94
2023-05-11T11:13:01.355Z,53.34
2023-05-11T11:14:01.371Z,53.54
2023-05-11T11:15:01.344Z,53.44
2023-05-11T11:16:01.342Z,53.27
2023-05-11T11:17:01.357Z,53.17
2023-05-11T11:18:01.349Z,53.86
2023-05-11T11:19:01.393Z,54.06
2023-05-11T11:20:01.343Z,52.57
2023-05-11T11:21:01.273Z,52.87
2023-05-11T11:22:01.315Z,53.06
2023-05-11T11:23:01.254Z,52.47
2023-05-11T11:24:01.270Z,52.57
2023-05-11T11:25:01.223Z,52.55
2023-05-11T11:26:01.215Z,52.12
2023-05-11T11:27:01.229Z,52.62
2023-05-11T11:28:01.250Z,52.62
2023-05-11T11:29:01.223Z,51.92
2023-05-11T11:30:01.189Z,51.82
2023-05-11T11:31:01.202Z,52.22
2023-05-11T11:32:01.158Z,51.82
2023-05-11T11:33:01.233Z,52.62
2023-05-11T11:34:01.128Z,51.65
2023-05-11T11:35:01.131Z,51.05
2023-05-11T11:36:01.128Z,51.12
2023-05-11T11:37:01.117Z,51.25
2023-05-11T11:38:01.080Z,52.04
2023-05-11T11:39:01.918Z,51.72
2023-05-11T11:40:13.240Z,52.02
2023-05-11T11:41:02.098Z,52.42
2023-05-11T11:42:01.045Z,51.82
2023-05-11T11:43:01.029Z,51.92
2023-05-11T11:44:01.036Z,53.22
2023-05-11T11:45:01.018Z,53.31
2023-05-11T11:46:01.113Z,53.91
2023-05-11T11:47:01.007Z,51.52
2023-05-11T11:48:01.000Z,53.31
2023-05-11T11:49:00.961Z,52.42
2023-05-11T11:50:00.970Z,52.09
2023-05-11T11:51:00.963Z,51.70
2023-05-11T11:52:00.937Z,51.79
2023-05-11T11:53:00.934Z,51.70
2023-05-11T11:54:01.184Z,49.70
2023-05-11T11:55:00.894Z,51.00
2023-05-11T11:56:00.917Z,51.10
2023-05-11T11:57:00.870Z,50.60
2023-05-11T11:58:00.870Z,50.30
2023-05-11T11:59:00.900Z,50.60
2023-05-11T12:00:00.869Z,50.20
2023-05-11T12:01:00.832Z,50.90
2023-05-11T12:02:00.830Z,50.30
2023-05-11T12:03:00.909Z,50.20
2023-05-11T12:04:00.958Z,50.87
2023-05-11T12:05:00.859Z,50.40
2023-05-11T12:06:00.819Z,50.50
2023-05-11T12:07:00.802Z,50.08
2023-05-11T12:08:00.772Z,49.70
2023-05-11T12:09:00.739Z,50.60
2023-05-11T12:10:00.789Z,50.27
2023-05-11T12:11:00.719Z,50.08
2023-05-11T12:12:00.743Z,50.10
2023-05-11T12:13:00.702Z,50.10
2023-05-11T12:14:00.720Z,50.00
2023-05-11T12:15:00.678Z,50.18
2023-05-11T12:16:00.760Z,50.95
2023-05-11T12:17:00.709Z,49.88
2023-05-11T12:18:00.684Z,50.38
2023-05-11T12:19:02.092Z,49.08
2023-05-11T12:20:00.655Z,49.98
2023-05-11T12:21:00.642Z,50.18
2023-05-11T12:22:00.611Z,49.76
2023-05-11T12:23:00.602Z,49.26
2023-05-11T12:24:00.595Z,49.48
2023-05-11T12:25:00.780Z,48.66
2023-05-11T12:26:00.589Z,49.06
2023-05-11T12:27:00.551Z,49.53
2023-05-11T12:28:00.568Z,49.31
2023-05-11T12:29:00.523Z,48.71
2023-05-11T12:30:00.527Z,48.61
2023-05-11T12:31:00.949Z,48.32
2023-05-11T12:32:00.591Z,49.11
2023-05-11T12:33:00.534Z,48.41
2023-05-11T12:34:00.497Z,47.05
2023-05-11T12:35:00.533Z,46.65
2023-05-11T12:36:00.460Z,47.34
2023-05-11T12:37:00.668Z,48.34
2023-05-11T12:38:00.448Z,47.22
2023-05-11T12:39:00.424Z,47.34
2023-05-11T12:40:00.488Z,46.33
2023-05-11T12:41:00.393Z,46.92
2023-05-11T12:42:00.410Z,47.64
2023-05-11T12:43:00.381Z,47.22
2023-05-11T12:44:00.371Z,47.25
2023-05-11T12:45:00.361Z,48.32
2023-05-11T12:46:00.426Z,48.02
2023-05-11T12:47:00.340Z,48.41
2023-05-11T12:48:00.503Z,48.41
2023-05-11T12:49:00.317Z,48.11
2023-05-11T12:50:00.337Z,48.32
2023-05-11T12:51:00.307Z,47.52
2023-05-11T12:52:00.296Z,48.49